Terminal Aerodrome Forecast
Issued by NWS Lake Charles, LA

Home | Current Version | Previous Version | Text Only | Print | Product List | Glossary On
Versions: 1 2 3 4 5 6 7 8 9 10 11 12 13
000
FTUS44 KLCH 032349
TAFAEX
TAF
KAEX 032349Z 0400/0424 07011KT 3SM RA OVC006
     FM040300 07011KT P6SM -RA SCT008 OVC015
      TEMPO 0403/0406 2SM SHRA BR OVC008
     FM040600 07011KT 4SM -SHRA BR OVC008
     FM041200 02006KT 4SM -RA BR OVC004
     FM041800 36006KT 1/4SM FG OVC007=

USA.gov is the U.S. government's official web portal to all federal, state and local government web resources and services.